EDLW/DTM METAR and TAF weather

Enter ICAO airport designator
Station Type Date Time Source
EDLW METAR 2021/09/24 03:50 UTC NOAA

EDLW 240350Z 22006KT 6000 FEW006 OVC039 14/14 Q1016


Station Type Date Time Source
EDLW Decoded METAR 2021/09/24 03:50 UTC NOAA

Dortmund / Wickede, Germany (EDLW) 51-31N 007-37E
Sep 23, 2021 - 11:50 PM EDT / 2021.09.24 0350 UTC
Wind: from the SW (220 degrees) at 7 MPH (6 KT):0
Visibility: 3 mile(s):0
Sky conditions: overcast
Temperature: 57 F (14 C)
Dew Point: 57 F (14 C)
Relative Humidity: 100%
Pressure (altimeter): 30.00 in. Hg (1016 hPa)
ob: EDLW 240350Z 22006KT 6000 FEW006 OVC039 14/14 Q1016
cycle: 4

Station Type Date Time Source
EDLW TAF 2021/09/24 04:02 UTC NOAA

TAF EDLW 240355Z 2404/2424 23006KT 9999 SCT020 BKN030
TEMPO 2405/2409 BKN012
BECMG 2408/2410 24011KT
BECMG 2416/2419 23005KT

Example: see airport list